Time;durP1;ratioP1;P1;durP2;ratioP2;P2;SDS_P1;SDS_P2;PMS_P1;PMS_P2;Temp;Humidity;BMP_temperature;BMP_pressure;BME280_temperature;BME280_humidity;BME280_pressure;Samples;Min_cycle;Max_cycle;Signal;HPM_P1;HPM_P2
2022/08/15 00:01:47;;;;;;;10.63;6.20;;;;;;;29.02;52.38;100415.91;1700668;84;21475;-49
2022/08/15 00:04:14;;;;;;;10.68;5.75;;;;;;;29.02;52.36;100406.54;1736104;81;20995;-52
2022/08/15 00:06:43;;;;;;;12.23;6.10;;;;;;;29.00;52.44;100403.18;1739538;81;21022;-54
2022/08/15 00:09:18;;;;;;;7.40;5.53;;;;;;;29.00;52.51;100399.69;1734781;81;21038;-50
2022/08/15 00:11:48;;;;;;;10.50;6.53;;;;;;;28.98;52.59;100402.01;1697851;84;21054;-53
2022/08/15 00:14:21;;;;;;;8.10;5.45;;;;;;;28.97;52.71;100394.95;1730526;82;21503;-49
2022/08/15 00:16:49;;;;;;;10.45;6.12;;;;;;;28.97;52.93;100393.61;1731739;81;21011;-51
2022/08/15 00:19:19;;;;;;;10.05;5.83;;;;;;;28.97;53.06;100398.16;1724639;81;21023;-48
2022/08/15 00:21:50;;;;;;;11.45;7.05;;;;;;;28.97;53.16;100390.94;1694078;82;21033;-50
2022/08/15 00:24:19;;;;;;;9.95;5.92;;;;;;;28.96;53.17;100383.92;1705212;83;21041;-49
2022/08/15 00:26:48;;;;;;;9.63;6.25;;;;;;;28.97;53.25;100392.80;1712595;82;21013;-49
2022/08/15 00:29:17;;;;;;;8.65;6.03;;;;;;;28.96;53.23;100389.77;1702049;82;21049;-52
2022/08/15 00:31:44;;;;;;;7.90;5.65;;;;;;;28.96;53.28;100387.09;1708614;82;21114;-50
2022/08/15 00:34:14;;;;;;;11.15;6.70;;;;;;;28.96;53.38;100397.31;1707693;82;21037;-54
2022/08/15 00:36:41;;;;;;;8.50;6.25;;;;;;;28.96;53.43;100391.95;1705688;82;21002;-51
2022/08/15 00:39:08;;;;;;;9.63;6.05;;;;;;;28.96;53.46;100395.97;1707246;82;21541;-52
2022/08/15 00:41:41;;;;;;;9.13;6.05;;;;;;;28.97;53.48;100401.66;1708232;83;21093;-49
2022/08/15 00:44:21;;;;;;;9.63;6.47;;;;;;;28.99;53.52;100398.84;1708494;82;21085;-50
2022/08/15 00:46:53;;;;;;;11.65;6.33;;;;;;;29.01;53.43;100390.63;1708562;82;21050;-52
2022/08/15 00:49:20;;;;;;;11.22;7.05;;;;;;;29.02;53.41;100386.97;1634966;86;21091;-50
2022/08/15 00:51:55;;;;;;;10.18;6.55;;;;;;;29.01;53.32;100390.14;1600007;88;21070;-52
2022/08/15 00:54:38;;;;;;;8.90;6.65;;;;;;;29.03;53.07;100393.98;1580423;89;21082;-49
2022/08/15 00:57:10;;;;;;;10.88;6.58;;;;;;;29.02;53.02;100390.99;1625784;86;21202;-49
2022/08/15 00:59:42;;;;;;;10.68;7.25;;;;;;;29.01;53.04;100378.09;1583833;89;21126;-48
2022/08/15 01:02:12;;;;;;;8.50;6.85;;;;;;;29.02;52.96;100381.61;1546361;91;21124;-51
2022/08/15 01:04:38;;;;;;;10.13;6.85;;;;;;;29.01;52.90;100378.58;1546328;91;21104;-52
2022/08/15 01:07:07;;;;;;;13.75;7.72;;;;;;;29.00;52.86;100376.92;1546426;92;21175;-53
2022/08/15 01:09:36;;;;;;;10.30;7.30;;;;;;;28.97;52.93;100368.17;1546073;93;21072;-52
2022/08/15 01:12:15;;;;;;;9.63;6.80;;;;;;;28.96;52.97;100373.20;1546352;91;21170;-50
2022/08/15 01:14:45;;;;;;;10.88;6.90;;;;;;;28.95;52.98;100372.03;1529044;92;21063;-56
2022/08/15 01:17:12;;;;;;;11.18;7.28;;;;;;;28.94;53.04;100380.56;1527727;92;21063;-50
2022/08/15 01:19:48;;;;;;;11.53;6.65;;;;;;;28.94;53.04;100380.56;1527512;92;21600;-51
2022/08/15 01:23:10;;;;;;;13.90;6.83;;;;;;;28.94;53.09;100374.36;1458389;98;21661;-49
2022/08/15 01:25:43;;;;;;;;;;;;;;;28.94;53.11;100375.20;1453550;98;21102;-53
2022/08/15 01:28:22;;;;;;;11.75;7.53;;;;;;;28.94;53.06;100375.20;1458446;98;20120;-50
2022/08/15 01:31:09;;;;;;;11.05;7.45;;;;;;;28.93;53.13;100370.83;1452370;98;21165;-52
2022/08/15 01:33:47;;;;;;;12.63;7.60;;;;;;;28.92;53.17;100362.47;1455996;98;21093;-49
2022/08/15 01:36:14;;;;;;;9.65;7.70;;;;;;;28.92;52.95;100367.83;1455851;98;21077;-52
2022/08/15 01:38:48;;;;;;;10.75;7.28;;;;;;;28.91;52.82;100371.48;1454256;98;21085;-49
2022/08/15 01:41:40;;;;;;;10.43;7.40;;;;;;;28.91;52.76;100376.84;1453513;98;21636;-51
2022/08/15 01:44:21;;;;;;;10.88;7.92;;;;;;;28.90;52.65;100377.86;1452818;98;21142;-52
2022/08/15 01:47:15;;;;;;;7.97;6.97;;;;;;;28.90;52.58;100373.84;1453609;97;21112;-51
2022/08/15 01:49:47;;;;;;;11.12;7.45;;;;;;;28.89;52.65;100376.17;1462782;97;21124;-49
2022/08/15 01:52:15;;;;;;;13.20;8.58;;;;;;;28.89;52.75;100385.54;1432015;99;21158;-51
2022/08/15 01:54:42;;;;;;;9.15;7.03;;;;;;;28.89;52.71;100388.22;1429954;99;21078;-50
2022/08/15 01:57:09;;;;;;;10.58;7.20;;;;;;;28.89;52.69;100390.08;1417002;99;21136;-55
2022/08/15 01:59:35;;;;;;;11.80;7.80;;;;;;;28.89;52.76;100392.77;1448411;98;21117;-52
2022/08/15 02:02:06;;;;;;;12.20;7.87;;;;;;;28.88;52.80;100391.91;1455697;98;21117;-49
2022/08/15 02:04:37;;;;;;;10.40;7.30;;;;;;;28.88;52.81;100393.25;1455360;98;21645;-51
2022/08/15 02:07:12;;;;;;;9.05;6.75;;;;;;;28.89;52.79;100394.09;1463178;97;21146;-50
2022/08/15 02:09:41;;;;;;;12.63;7.78;;;;;;;28.89;52.78;100401.61;1463489;97;21594;-52
2022/08/15 02:12:09;;;;;;;10.03;7.12;;;;;;;28.88;52.85;100402.63;1464054;97;21669;-55
2022/08/15 02:14:41;;;;;;;12.90;7.87;;;;;;;28.89;52.95;100407.49;1463939;97;21138;-52
2022/08/15 02:17:09;;;;;;;9.78;7.55;;;;;;;28.87;52.99;100407.63;1464279;97;21145;-51
2022/08/15 02:19:38;;;;;;;13.72;8.13;;;;;;;28.87;52.92;100400.93;1455820;97;21595;-53
2022/08/15 02:22:05;;;;;;;13.58;8.05;;;;;;;28.87;53.00;100390.22;1453411;98;21105;-48
2022/08/15 02:24:32;;;;;;;9.30;7.47;;;;;;;28.87;53.07;100391.55;1453965;94;21135;-50
2022/08/15 02:26:59;;;;;;;11.78;7.28;;;;;;;28.86;53.13;100396.59;1523401;93;21123;-51
2022/08/15 02:29:28;;;;;;;12.15;7.75;;;;;;;28.87;52.86;100393.42;1531967;93;21606;-49
2022/08/15 02:32:03;;;;;;;11.85;7.92;;;;;;;28.87;52.73;100392.89;1516926;92;21104;-52
2022/08/15 02:34:31;;;;;;;10.48;7.33;;;;;;;28.87;52.68;100389.41;1476851;96;21219;-49
2022/08/15 02:36:58;;;;;;;14.07;8.10;;;;;;;28.86;52.59;100395.25;1476320;96;21631;-51
2022/08/15 02:39:25;;;;;;;10.95;7.80;;;;;;;28.85;52.59;100397.57;1473889;96;21124;-53
2022/08/15 02:41:52;;;;;;;10.78;7.33;;;;;;;28.85;52.57;100400.25;1477110;97;21459;-55
2022/08/15 02:44:21;;;;;;;8.40;7.60;;;;;;;28.85;52.56;100404.27;1485796;96;21586;-52
2022/08/15 02:46:52;;;;;;;10.30;8.13;;;;;;;28.84;52.70;100406.63;1494820;95;21103;-49
2022/08/15 02:49:19;;;;;;;11.45;7.87;;;;;;;28.83;52.77;100404.92;1529621;92;21131;-51
2022/08/15 02:51:47;;;;;;;9.85;7.47;;;;;;;28.81;52.71;100401.56;1557962;90;21056;-52
2022/08/15 02:54:19;;;;;;;10.23;7.78;;;;;;;28.80;52.66;100398.56;1554136;91;21056;-52
2022/08/15 02:56:45;;;;;;;9.68;7.70;;;;;;;28.79;52.75;100387.50;1554280;91;21586;-54
2022/08/15 02:59:12;;;;;;;9.38;8.25;;;;;;;28.79;52.76;100390.17;1554270;91;21069;-50
2022/08/15 03:01:41;;;;;;;13.88;7.42;;;;;;;28.79;52.76;100390.70;1554153;91;21541;-51
2022/08/15 03:04:14;;;;;;;14.30;7.80;;;;;;;28.78;52.66;100388.52;1621653;85;21090;-51
2022/08/15 03:06:43;;;;;;;14.05;8.63;;;;;;;28.76;52.65;100386.48;1669119;84;21054;-50
2022/08/15 03:09:13;;;;;;;13.88;9.45;;;;;;;28.76;52.85;100395.86;1669632;84;21074;-49
2022/08/15 03:11:43;;;;;;;15.43;8.90;;;;;;;28.74;53.35;100395.18;1659578;84;21093;-50
2022/08/15 03:14:16;;;;;;;12.07;8.93;;;;;;;28.73;53.58;100390.81;1647542;85;21011;-50
2022/08/15 03:16:45;;;;;;;16.67;10.75;;;;;;;28.73;53.67;100389.47;1621549;87;21034;-51
2022/08/15 03:21:44;;;;;;;13.93;9.43;;;;;;;28.71;53.65;100388.78;1536730;92;21602;-51
2022/08/15 03:24:12;;;;;;;13.48;8.55;;;;;;;28.71;53.72;100389.28;1537231;92;21609;-49
2022/08/15 03:26:39;;;;;;;10.88;8.88;;;;;;;28.73;53.80;100385.94;1536691;92;21291;-52
2022/08/15 03:29:06;;;;;;;9.88;7.67;;;;;;;28.73;53.93;100387.28;1536827;93;21060;-49
2022/08/15 03:31:35;;;;;;;11.83;7.87;;;;;;;28.74;54.02;100388.98;1569179;89;21036;-52
2022/08/15 03:34:02;;;;;;;10.68;7.75;;;;;;;28.73;54.31;100386.79;1585515;89;21120;-49
2022/08/15 03:36:30;;;;;;;11.65;7.85;;;;;;;28.73;54.45;100382.77;1585741;89;21056;-50
2022/08/15 03:38:57;;;;;;;10.63;7.50;;;;;;;28.75;54.49;100391.98;1585557;89;21128;-53
2022/08/15 03:41:25;;;;;;;10.53;7.20;;;;;;;28.76;54.42;100386.98;1585557;89;21079;-50
2022/08/15 03:43:53;;;;;;;13.35;8.38;;;;;;;28.78;54.05;100389.85;1585544;90;21076;-51
2022/08/15 03:46:21;;;;;;;9.83;7.30;;;;;;;28.79;53.45;100396.05;1584187;89;21572;-51
2022/08/15 03:48:53;;;;;;;8.55;7.65;;;;;;;28.82;53.24;100403.27;1578182;89;21092;-53
2022/08/15 03:51:21;;;;;;;11.18;8.30;;;;;;;28.83;52.91;100399.57;1577349;89;21025;-52
2022/08/15 03:53:51;;;;;;;12.82;8.03;;;;;;;28.85;52.59;100398.91;1577426;89;21052;-51
2022/08/15 03:56:26;;;;;;;9.65;7.83;;;;;;;28.86;52.33;100390.38;1577467;89;21498;-53
2022/08/15 03:58:54;;;;;;;11.50;8.28;;;;;;;28.88;51.96;100391.91;1577388;91;21028;-51
2022/08/15 04:01:28;;;;;;;10.10;7.35;;;;;;;28.90;51.72;100392.59;1577220;89;21052;-49
2022/08/15 04:03:54;;;;;;;9.35;7.80;;;;;;;28.91;51.28;100396.94;1570479;89;21100;-51
2022/08/15 04:06:25;;;;;;;8.50;7.37;;;;;;;28.93;50.98;100402.97;1577427;89;21080;-51
2022/08/15 04:08:53;;;;;;;9.93;8.03;;;;;;;28.94;50.79;100400.65;1577254;89;21092;-52
2022/08/15 04:11:22;;;;;;;10.08;8.28;;;;;;;28.95;50.71;100396.95;1577124;89;21577;-51
2022/08/15 04:13:50;;;;;;;12.88;8.05;;;;;;;28.96;50.61;100398.66;1575717;91;21078;-52
2022/08/15 04:16:17;;;;;;;12.70;8.85;;;;;;;28.97;50.42;100404.86;1591651;88;21070;-49
2022/08/15 04:18:44;;;;;;;14.45;7.75;;;;;;;28.96;50.40;100402.67;1676924;82;21499;-49
2022/08/15 04:21:12;;;;;;;13.98;7.58;;;;;;;28.96;50.48;100408.02;1696043;84;21073;-51
2022/08/15 04:23:42;;;;;;;10.75;8.18;;;;;;;28.96;50.68;100410.70;1698898;84;20998;-50
2022/08/15 04:26:09;;;;;;;9.93;7.67;;;;;;;28.96;50.83;100412.05;1700525;84;21002;-51
2022/08/15 04:28:36;;;;;;;10.50;8.10;;;;;;;28.97;50.85;100411.55;1697887;84;21494;-54
2022/08/15 04:31:07;;;;;;;11.55;7.95;;;;;;;28.98;50.77;100410.05;1699634;84;21054;-52
2022/08/15 04:33:34;;;;;;;14.87;8.85;;;;;;;29.01;50.76;100403.53;1737171;81;21011;-51
2022/08/15 04:38:40;;;;;;;9.18;8.28;;;;;;;29.03;51.06;100393.50;1649928;87;21607;-49
2022/08/15 04:41:08;;;;;;;11.80;8.35;;;;;;;29.04;51.00;100385.78;1651049;87;21030;-51
2022/08/15 04:43:35;;;;;;;9.65;8.18;;;;;;;29.04;50.97;100376.94;1650618;87;21482;-49
2022/08/15 04:46:04;;;;;;;11.00;8.35;;;;;;;29.04;51.36;100382.29;1652067;87;21478;-51
2022/08/15 04:48:31;;;;;;;13.28;8.70;;;;;;;29.03;51.68;100373.41;1648472;87;21067;-49
2022/08/15 04:50:59;;;;;;;10.58;7.95;;;;;;;29.02;51.81;100373.58;1646114;87;21095;-51
2022/08/15 04:53:33;;;;;;;11.40;8.35;;;;;;;29.00;51.94;100370.22;1646111;87;21082;-49
2022/08/15 04:56:02;;;;;;;14.03;8.18;;;;;;;28.98;51.97;100373.88;1645959;87;21061;-49
2022/08/15 04:58:30;;;;;;;11.05;8.65;;;;;;;28.97;51.82;100374.05;1646449;87;21091;-52
2022/08/15 05:01:03;;;;;;;8.90;8.00;;;;;;;28.95;51.93;100371.51;1646174;87;21011;-51
2022/08/15 05:03:38;;;;;;;11.95;8.10;;;;;;;28.96;52.12;100380.39;1642985;87;21054;-53
2022/08/15 05:06:09;;;;;;;10.63;8.30;;;;;;;28.97;52.01;100382.09;1645789;87;21523;-50
2022/08/15 05:08:37;;;;;;;15.53;8.57;;;;;;;28.97;51.95;100384.24;1646346;87;21091;-49
2022/08/15 05:11:14;;;;;;;13.88;8.45;;;;;;;29.02;51.83;100384.30;1646018;87;21034;-49
2022/08/15 05:13:42;;;;;;;12.73;8.95;;;;;;;29.02;51.54;100385.11;1646471;87;21110;-51
2022/08/15 05:16:12;;;;;;;10.65;8.23;;;;;;;29.05;51.44;100386.63;1646448;87;21063;-49
2022/08/15 05:18:42;;;;;;;8.98;8.03;;;;;;;29.06;51.25;100391.01;1646326;87;21023;-50
2022/08/15 05:21:10;;;;;;;10.60;7.95;;;;;;;29.07;51.09;100392.67;1646250;87;21035;-53
2022/08/15 05:23:39;;;;;;;12.35;8.45;;;;;;;29.08;50.96;100393.03;1646243;87;21535;-51
2022/08/15 05:26:07;;;;;;;11.33;7.85;;;;;;;29.09;50.68;100397.37;1646301;87;21081;-52
2022/08/15 05:28:36;;;;;;;11.15;8.23;;;;;;;29.09;50.55;100396.87;1646408;87;21511;-49
2022/08/15 05:31:06;;;;;;;12.60;8.18;;;;;;;29.09;50.65;100399.55;1645609;87;21024;-52
2022/08/15 05:33:35;;;;;;;10.75;8.28;;;;;;;29.10;50.69;100401.74;1646415;87;21046;-50
2022/08/15 05:36:04;;;;;;;12.98;8.78;;;;;;;29.08;50.86;100404.56;1713087;81;20987;-49
2022/08/15 05:38:35;;;;;;;8.73;7.92;;;;;;;29.06;51.06;100404.41;1701111;84;21502;-49
2022/08/15 05:41:35;;;;;;;10.38;8.03;;;;;;;29.07;51.31;100406.06;1740065;81;21097;-50
2022/08/15 05:44:23;;;;;;;12.30;8.48;;;;;;;29.10;51.48;100409.78;1698189;83;21031;-50
2022/08/15 05:47:22;;;;;;;12.65;7.90;;;;;;;29.12;51.64;100411.80;1731121;81;21007;-52
2022/08/15 05:50:00;;;;;;;11.33;8.90;;;;;;;29.15;51.71;100412.34;1701341;83;21071;-51
2022/08/15 05:53:14;;;;;;;9.98;8.63;;;;;;;29.20;51.38;100410.53;1666068;84;21055;-48
2022/08/15 05:56:03;;;;;;;12.98;9.00;;;;;;;29.22;51.04;100409.87;1694112;84;21062;-52
2022/08/15 05:58:41;;;;;;;9.65;8.65;;;;;;;29.23;50.55;100404.34;1698223;83;21039;-53
2022/08/15 06:01:31;;;;;;;13.93;8.70;;;;;;;29.22;50.16;100402.67;1701324;83;21578;-53
2022/08/15 06:04:15;;;;;;;12.50;8.10;;;;;;;29.22;50.35;100403.16;1691681;83;21031;-53
2022/08/15 06:06:43;;;;;;;14.15;8.68;;;;;;;29.20;50.56;100406.02;1670626;83;21095;-51
2022/08/15 06:09:51;;;;;;;11.60;8.80;;;;;;;29.22;50.59;100411.20;1680596;83;21075;-54
2022/08/15 06:12:33;;;;;;;9.30;8.23;;;;;;;29.25;50.63;100416.23;1556082;91;21598;-53
2022/08/15 06:15:14;;;;;;;11.48;8.43;;;;;;;29.29;50.65;100417.58;1556064;91;21490;-52
2022/08/15 06:17:48;;;;;;;11.60;8.53;;;;;;;29.30;50.73;100414.77;1509584;94;21207;-53
2022/08/15 06:20:19;;;;;;;10.10;7.87;;;;;;;29.29;50.63;100417.58;1515283;94;21603;-51
2022/08/15 06:23:12;;;;;;;13.53;8.70;;;;;;;29.28;50.79;100423.96;1510996;94;21141;-50
2022/08/15 06:25:59;;;;;;;11.50;8.75;;;;;;;29.30;50.83;100424.64;1508240;94;21170;-54
2022/08/15 06:28:43;;;;;;;11.35;9.13;;;;;;;29.30;50.52;100424.64;1532591;93;21639;-52
2022/08/15 06:31:32;;;;;;;10.45;9.20;;;;;;;29.29;50.51;100429.16;1470881;96;21589;-52
2022/08/15 06:34:31;;;;;;;10.85;8.95;;;;;;;29.29;50.54;100429.64;1473497;95;21076;-54
2022/08/15 06:37:05;;;;;;;11.45;8.78;;;;;;;29.29;50.59;100426.97;1468300;96;21156;-52
2022/08/15 06:39:59;;;;;;;9.70;8.70;;;;;;;29.29;50.57;100424.28;1381500;102;21187;-56
2022/08/15 06:42:38;;;;;;;14.35;9.10;;;;;;;29.27;50.55;100428.97;1359126;103;21996;-52
2022/08/15 06:45:20;;;;;;;9.90;8.88;;;;;;;29.25;50.58;100434.98;1419931;99;21635;-53
2022/08/15 06:47:50;;;;;;;12.65;8.60;;;;;;;29.24;50.65;100439.53;1411980;100;21109;-54
2022/08/15 06:50:22;;;;;;;12.17;8.43;;;;;;;29.23;50.58;100439.67;1388788;103;21201;-51
2022/08/15 06:52:55;;;;;;;12.53;9.70;;;;;;;29.23;50.48;100439.67;1384765;102;21366;-50
2022/08/15 06:55:23;;;;;;;13.38;9.78;;;;;;;29.24;50.53;100440.02;1393944;101;21651;-51
2022/08/15 06:57:59;;;;;;;14.65;9.55;;;;;;;29.28;50.23;100451.61;1372219;103;21183;-52
2022/08/15 07:00:46;;;;;;;10.43;9.28;;;;;;;29.32;50.10;100453.46;1365389;103;21183;-53
2022/08/15 07:03:47;;;;;;;9.58;8.55;;;;;;;29.39;50.12;100457.16;1365015;103;21238;-51
2022/08/15 07:06:18;;;;;;;10.72;9.08;;;;;;;29.44;49.99;100450.83;1355199;104;21162;-50
2022/08/15 07:08:57;;;;;;;14.20;9.23;;;;;;;29.49;49.62;100445.84;1403313;98;21971;-49
2022/08/15 07:11:44;;;;;;;15.55;9.98;;;;;;;29.53;49.76;100443.17;1435753;98;21520;-51
2022/08/15 07:14:25;;;;;;;13.48;9.58;;;;;;;29.57;49.66;100452.56;1432400;99;21185;-55
2022/08/15 07:17:12;;;;;;;11.15;9.23;;;;;;;29.60;49.34;100450.89;1425861;99;21096;-52
2022/08/15 07:19:39;;;;;;;10.88;8.60;;;;;;;29.63;48.96;100454.60;1441666;98;21094;-50
2022/08/15 07:22:09;;;;;;;14.28;9.53;;;;;;;29.65;48.75;100448.08;1429658;99;21699;-49
2022/08/15 07:24:37;;;;;;;12.65;9.35;;;;;;;29.68;49.10;100452.25;1439834;99;21623;-50
2022/08/15 07:27:12;;;;;;;14.90;9.63;;;;;;;29.74;49.12;100454.31;1434973;99;21127;-52
2022/08/15 07:29:45;;;;;;;10.72;9.35;;;;;;;29.75;48.81;100456.01;1414538;100;21620;-55
2022/08/15 07:32:14;;;;;;;;;;;;;;;29.78;49.10;100457.00;1429005;100;21116;-53
2022/08/15 07:35:12;;;;;;;12.18;9.55;;;;;;;29.83;48.98;100452.50;1423654;99;20184;-48
2022/08/15 07:37:51;;;;;;;10.85;9.35;;;;;;;29.84;49.14;100456.88;1535816;92;21101;-51
2022/08/15 07:40:26;;;;;;;12.05;9.55;;;;;;;29.85;48.59;100448.66;1488263;95;21609;-52
2022/08/15 07:42:53;;;;;;;11.60;9.55;;;;;;;29.91;48.73;100443.13;1489547;95;21126;-49
2022/08/15 07:48:24;;;;;;;13.88;9.60;;;;;;;30.01;49.12;100456.73;1435241;99;21176;-50
2022/08/15 07:51:15;;;;;;;11.85;9.05;;;;;;;30.09;48.83;100465.33;1434431;99;21132;-50
2022/08/15 07:54:05;;;;;;;9.83;8.83;;;;;;;30.15;48.67;100460.11;1398830;101;21140;-50
2022/08/15 07:56:44;;;;;;;13.75;9.15;;;;;;;30.24;48.83;100460.47;1403420;102;21151;-50
2022/08/15 07:59:24;;;;;;;17.15;10.03;;;;;;;30.33;48.47;100471.59;1396084;102;21185;-51
2022/08/15 08:02:17;;;;;;;13.30;9.53;;;;;;;30.40;48.36;100472.59;1392330;102;21155;-51
2022/08/15 08:04:44;;;;;;;13.60;9.38;;;;;;;30.46;48.06;100470.58;1390964;102;21648;-50
2022/08/15 08:07:25;;;;;;;14.18;8.93;;;;;;;30.56;48.30;100474.95;1410281;98;21161;-54
2022/08/15 08:10:05;;;;;;;11.95;9.10;;;;;;;30.62;48.46;100472.44;1467481;98;21295;-52
2022/08/15 08:12:45;;;;;;;14.03;10.10;;;;;;;30.68;48.24;100468.23;1463466;98;21325;-52
2022/08/15 08:15:20;;;;;;;16.55;9.88;;;;;;;30.77;47.90;100463.20;1421645;101;21129;-52
2022/08/15 08:17:59;;;;;;;11.80;9.80;;;;;;;30.84;47.85;100460.14;1420962;100;21118;-52
2022/08/15 08:20:41;;;;;;;14.23;10.00;;;;;;;30.89;47.49;100456.49;1430304;99;21142;-50
2022/08/15 08:23:22;;;;;;;13.40;9.63;;;;;;;30.91;47.43;100451.78;1428982;99;21063;-51
2022/08/15 08:26:21;;;;;;;14.05;10.18;;;;;;;30.93;47.45;100451.11;1379548;103;21609;-52
2022/08/15 08:29:11;;;;;;;12.88;10.18;;;;;;;30.96;47.38;100448.91;1383298;103;21186;-50
2022/08/15 08:32:26;;;;;;;11.65;10.45;;;;;;;31.00;47.36;100446.70;1407092;100;21585;-51
2022/08/15 08:35:20;;;;;;;11.65;9.33;;;;;;;31.00;47.05;100446.21;1398872;102;21145;-51
2022/08/15 08:38:20;;;;;;;15.05;10.10;;;;;;;31.02;47.20;100446.03;1400692;102;21137;-51
2022/08/15 08:44:27;;;;;;;13.43;10.13;;;;;;;30.99;47.50;100451.77;1341090;106;21189;-53
2022/08/15 08:47:29;;;;;;;12.82;10.10;;;;;;;31.00;47.23;100449.39;1352509;104;21616;-52
2022/08/15 08:50:29;;;;;;;14.13;10.82;;;;;;;31.01;47.39;100446.56;1362185;104;21131;-50
2022/08/15 08:53:29;;;;;;;11.35;9.85;;;;;;;31.04;47.33;100445.35;1381230;101;21248;-50
2022/08/15 08:56:08;;;;;;;12.80;9.95;;;;;;;31.06;47.39;100444.67;1405131;100;21176;-55
2022/08/15 08:58:42;;;;;;;17.90;10.13;;;;;;;31.11;47.09;100451.73;1404138;100;21653;-50
2022/08/15 09:01:12;;;;;;;16.02;10.23;;;;;;;31.14;47.17;100454.09;1404548;100;21147;-52
2022/08/15 09:03:51;;;;;;;12.25;9.63;;;;;;;31.16;47.02;100454.22;1400090;100;21805;-52
2022/08/15 09:06:25;;;;;;;11.83;9.35;;;;;;;31.21;46.89;100455.05;1374143;103;21228;-50
2022/08/15 09:09:12;;;;;;;12.47;10.00;;;;;;;31.25;46.82;100453.70;1380050;103;21088;-50
2022/08/15 09:11:44;;;;;;;11.65;9.68;;;;;;;31.28;46.48;100458.75;1419795;99;21217;-55
2022/08/15 09:14:20;;;;;;;15.05;10.08;;;;;;;31.30;46.62;100459.41;1439289;98;21152;-52
2022/08/15 09:16:47;;;;;;;14.05;10.28;;;;;;;31.34;46.84;100460.73;1400887;101;21145;-50
2022/08/15 09:19:32;;;;;;;14.15;10.32;;;;;;;31.37;47.06;100458.22;1402142;101;21679;-49
2022/08/15 09:21:59;;;;;;;15.48;11.28;;;;;;;31.38;47.01;100461.22;1455548;93;21133;-51
2022/08/15 09:24:27;;;;;;;16.17;10.65;;;;;;;31.41;46.63;100467.11;1585677;89;21047;-48
2022/08/15 09:27:18;;;;;;;12.53;10.28;;;;;;;31.41;46.49;100462.27;1579308;89;21089;-52
2022/08/15 09:29:51;;;;;;;13.08;10.20;;;;;;;31.42;46.75;100462.58;1579373;89;21112;-54
2022/08/15 09:32:33;;;;;;;13.18;10.32;;;;;;;31.41;46.91;100471.14;1582891;89;21604;-54
2022/08/15 09:35:32;;;;;;;15.48;10.38;;;;;;;31.41;46.84;100480.55;1571928;90;21106;-52
2022/08/15 09:38:39;;;;;;;11.28;10.18;;;;;;;31.38;46.81;100485.42;1575852;90;21092;-51
2022/08/15 09:41:24;;;;;;;11.60;10.45;;;;;;;31.33;47.21;100485.44;1582645;89;21072;-49
2022/08/15 09:44:23;;;;;;;13.83;10.03;;;;;;;31.31;47.24;100491.98;1570325;90;21060;-50
2022/08/15 09:47:20;;;;;;;19.40;10.38;;;;;;;31.27;47.35;100494.19;1572594;90;21142;-49
2022/08/15 09:50:11;;;;;;;12.15;10.63;;;;;;;31.24;47.30;100493.70;1575212;89;21071;-51
2022/08/15 09:53:10;;;;;;;12.70;10.63;;;;;;;31.21;47.75;100502.10;1571904;90;21529;-52
2022/08/15 09:55:46;;;;;;;15.25;10.20;;;;;;;31.19;48.07;100505.47;1564887;90;21046;-52
2022/08/15 09:58:26;;;;;;;16.05;10.30;;;;;;;31.20;48.15;100507.16;1562667;90;21090;-52
2022/08/15 10:01:10;;;;;;;11.30;9.25;;;;;;;31.21;48.14;100506.13;1558670;90;21076;-53
2022/08/15 10:03:59;;;;;;;13.80;9.63;;;;;;;31.21;48.14;100500.26;1566716;89;21653;-51
2022/08/15 10:06:52;;;;;;;14.65;10.05;;;;;;;31.24;48.05;100492.36;1523615;91;21801;-52
2022/08/15 10:09:33;;;;;;;15.13;10.38;;;;;;;31.27;48.08;100500.91;1457413;96;21586;-51
2022/08/15 10:12:17;;;;;;;13.43;10.78;;;;;;;31.33;48.31;100503.41;1452021;96;21074;-51
2022/08/15 10:14:50;;;;;;;12.35;9.33;;;;;;;31.40;48.15;100504.44;1500572;94;21665;-50
2022/08/15 10:17:37;;;;;;;12.63;10.20;;;;;;;31.47;48.27;100509.44;1449975;97;21099;-50
2022/08/15 10:20:18;;;;;;;14.05;9.65;;;;;;;31.52;48.18;100509.77;1459210;97;21121;-52
2022/08/15 10:22:52;;;;;;;11.75;10.13;;;;;;;31.55;48.35;100512.09;1524389;94;21061;-49
2022/08/15 10:25:35;;;;;;;14.33;9.83;;;;;;;31.59;48.37;100512.11;1527132;93;21073;-51
2022/08/15 10:28:13;;;;;;;13.30;9.30;;;;;;;31.62;48.57;100511.75;1527281;93;21056;-50
2022/08/15 10:30:48;;;;;;;12.28;9.40;;;;;;;31.64;48.86;100508.37;1518546;93;21065;-49
2022/08/15 10:33:34;;;;;;;15.38;9.40;;;;;;;31.69;49.25;100509.20;1494059;95;21757;-48
2022/08/15 10:36:15;;;;;;;15.98;9.73;;;;;;;31.74;49.40;100514.38;1535000;93;21019;-53
2022/08/15 10:38:59;;;;;;;14.03;8.48;;;;;;;31.79;49.49;100510.67;1488965;96;21122;-50
2022/08/15 10:41:49;;;;;;;12.28;8.38;;;;;;;31.88;49.35;100510.95;1495141;94;21255;-49
2022/08/15 10:44:36;;;;;;;12.70;8.50;;;;;;;31.94;49.14;100507.58;1495804;94;21068;-49
2022/08/15 10:47:41;;;;;;;12.93;8.58;;;;;;;31.99;49.18;100502.52;1486070;94;21147;-49
2022/08/15 10:50:25;;;;;;;14.75;9.10;;;;;;;32.06;49.41;100500.81;1477227;96;21090;-53
2022/08/15 10:53:20;;;;;;;11.70;9.15;;;;;;;32.11;49.54;100494.87;1521408;92;21719;-55
2022/08/15 10:55:47;;;;;;;10.43;8.48;;;;;;;32.20;49.30;100497.86;1475546;94;21087;-52
2022/08/15 10:58:23;;;;;;;12.47;8.30;;;;;;;32.29;49.14;100489.22;1479929;95;21128;-50
2022/08/15 11:01:02;;;;;;;11.25;8.33;;;;;;;32.36;48.95;100487.47;1491327;92;21062;-52
2022/08/15 11:03:29;;;;;;;10.18;8.70;;;;;;;32.43;48.58;100493.83;1522115;93;21093;-49
2022/08/15 11:06:06;;;;;;;13.88;8.80;;;;;;;32.46;48.50;100493.52;1577823;89;21032;-53
2022/08/15 11:08:36;;;;;;;15.45;8.50;;;;;;;32.47;48.56;100488.44;1590408;89;21564;-53
2022/08/15 11:11:05;;;;;;;13.25;8.60;;;;;;;32.48;48.71;100490.12;1602764;86;21551;-53
2022/08/15 11:13:32;;;;;;;13.08;8.65;;;;;;;32.50;48.53;100492.13;1575549;89;21056;-52
2022/08/15 11:16:10;;;;;;;13.75;9.43;;;;;;;32.50;48.39;100488.09;1571240;89;21584;-52
2022/08/15 11:18:51;;;;;;;16.48;9.60;;;;;;;32.51;48.53;100485.70;1646369;85;21157;-51
2022/08/15 11:21:39;;;;;;;11.08;8.23;;;;;;;32.54;48.52;100490.75;1698483;82;21034;-51
2022/08/15 11:24:07;;;;;;;16.10;8.33;;;;;;;32.55;48.57;100497.80;1700083;82;21091;-50
2022/08/15 11:26:40;;;;;;;12.00;9.08;;;;;;;32.54;48.29;100500.99;1700601;83;21043;-52
2022/08/15 11:29:15;;;;;;;12.23;7.90;;;;;;;32.55;48.43;100497.80;1694358;84;21066;-55
2022/08/15 11:31:55;;;;;;;13.75;8.60;;;;;;;32.54;48.49;100505.56;1642491;86;21626;-53
2022/08/15 11:34:30;;;;;;;11.68;7.85;;;;;;;32.53;48.68;100503.88;1638682;86;21078;-53
2022/08/15 11:37:04;;;;;;;19.00;8.90;;;;;;;32.51;48.78;100508.61;1622719;86;21069;-49
2022/08/15 11:39:31;;;;;;;8.85;7.95;;;;;;;32.50;48.91;100506.41;1621016;86;21017;-51
2022/08/15 11:42:03;;;;;;;13.68;8.23;;;;;;;32.49;49.03;100502.56;1604199;86;21054;-53
2022/08/15 11:44:48;;;;;;;11.55;7.80;;;;;;;32.48;49.17;100504.94;1664825;84;20989;-49
2022/08/15 11:47:16;;;;;;;11.33;7.78;;;;;;;32.45;48.93;100505.25;1586617;88;21071;-50
2022/08/15 11:49:54;;;;;;;11.80;7.67;;;;;;;32.40;49.04;100499.05;1586777;89;21531;-51
2022/08/15 11:52:34;;;;;;;11.63;7.22;;;;;;;32.34;49.25;100501.13;1519969;93;21616;-50
2022/08/15 11:55:17;;;;;;;12.13;7.70;;;;;;;32.30;49.58;100504.34;1404133;101;21134;-51
2022/08/15 11:57:51;;;;;;;10.48;7.30;;;;;;;32.26;49.57;100495.80;1408432;101;21122;-51
2022/08/15 12:00:48;;;;;;;12.23;8.10;;;;;;;32.22;49.49;100493.63;1408575;101;21117;-52
2022/08/15 12:03:23;;;;;;;12.00;8.18;;;;;;;32.16;49.58;100490.31;1405126;101;21621;-51
2022/08/15 12:05:57;;;;;;;13.10;7.90;;;;;;;32.08;49.68;100482.63;1394131;102;21665;-49
2022/08/15 12:08:30;;;;;;;12.63;8.10;;;;;;;32.02;50.02;100483.34;1370405;103;21150;-51
2022/08/15 12:11:18;;;;;;;11.25;8.28;;;;;;;31.96;50.16;100488.06;1389220;103;21602;-56